x

Ilm2 - 5 Miles Se Of Wrightsville Beach, Nc (41038) Weather Station

9:08pm - Sat 25th Mar 2017 All times are EDT. -4 hours from GMT.

  • Wind
    4mph, 7mph gusts
  • Sea Temp 59°f
  • Air Temp 61°f
  • Sea Pressure 1024.9mb
  • Ilm2 - 5 Miles Se Of Wrightsville Beach, Nc
  • Ilm2 - 5 Miles Se Of Wrightsville Beach, Nc

More Historic Weather Station data

Upgrade to MSW Pro to gain access to the past 30 days of data for over 8000 Wavebouys and Weather Stations around the globe.

Join Pro

Comparision Forecast

View Surf forecast
   
Sat 03/25 9:08pm 4 7 mph 1024.9mb 59f 61f
8:08pm 7 9 mph 1024.6mb 59f 62f
7:08pm 7 9 mph 1024.4mb 59f 62f
6:08pm 4 9 mph 1024.5mb 59f 63f
5:08pm 4 9 mph 1025mb 59f 62f
4:08pm 7 9 mph 1025.2mb 59f 62f
3:08pm 7 9 mph 1026.1mb 58f 62f
2:08pm 7 11 mph 1026.8mb 58f 62f
1:08pm 7 9 mph 1027.3mb 57f 62f
12:08pm 7 9 mph 1028mb 57f 62f
11:08am 4 7 mph 1028.4mb 56f 62f
10:08am 2 4 mph 1028.5mb 56f 61f
9:08am  -  2 mph 1028mb 56f 61f
8:08am 2 4 mph 1027.3mb 56f 60f
7:08am 4
mph
1026.6mb 57f 59f
6:08am 7 9 mph 1026.3mb 57f 59f
5:08am 7 11 mph 1026.7mb 57f 61f
4:08am 9 11 mph 1027.2mb 57f 60f
3:08am 9 13 mph 1027.8mb 57f 60f
2:08am 9 13 mph 1028.2mb 57f 60f
1:08am 9 11 mph 1028.6mb 57f 60f
12:08am 9 11 mph 1029mb 57f 60f
Fri 03/24 11:08pm 9 11 mph 1029mb 57f 60f
10:08pm 9 11 mph 1029mb 57f 60f
9:08pm 9 11 mph 1029.1mb 58f 60f
8:08pm 7 9 mph 1029.2mb 58f 61f
7:08pm 4 7 mph 1029.1mb 59f 62f
6:08pm 4 7 mph 1029.4mb 59f 62f
5:08pm 4 7 mph 1029.9mb 58f 62f
4:08pm 4 7 mph 1030.6mb 58f 62f
3:08pm 4 7 mph 1031.2mb 57f 60f
2:08pm 2 7 mph 1032.1mb 57f 59f
1:08pm 4 9 mph 1032.8mb 56f 57f
12:08pm 7 11 mph 1033.4mb 56f 56f
11:08am 9 13 mph 1033.7mb 56f 55f
10:08am 9 13 mph 1033.6mb 56f 53f
9:08am 9 20 mph 1033.5mb 56f 52f
8:08am 11 18 mph 1033.6mb 56f 51f
7:08am 13 20 mph 1033.2mb 56f 50f
6:08am 13 22 mph 1033.1mb 56f 51f
5:08am 13 22 mph 1032.7mb 56f 51f
4:08am 16 25 mph 1032.8mb 56f 51f
3:08am 16 25 mph 1032.8mb 56f 52f
2:08am 13 22 mph 1033.3mb 56f 52f
1:08am 13 22 mph 1034.2mb 56f 52f
12:08am 13 20 mph 1034.2mb 56f 52f
Thu 03/23 11:08pm 13 25 mph 1034mb 56f 52f
10:08pm 16 25 mph 1034.2mb 56f 51f
9:08pm 16 25 mph 1034.2mb 56f 51f
8:08pm 16 29 mph 1034.1mb 56f 51f
7:08pm 16 25 mph 1034.3mb 56f 51f
6:08pm 16 25 mph 1034.3mb 57f 50f
5:08pm 16 27 mph 1034.2mb 57f 49f
4:08pm 16 27 mph 1034.3mb 57f 49f
3:08pm 16 25 mph 1034.6mb 57f 48f
2:08pm 16 27 mph 1035.2mb 57f 48f
1:08pm 16 29 mph 1035.4mb 57f 47f
12:08pm 16 27 mph 1035.8mb 57f 47f
11:08am 18 31 mph 1035.6mb 57f 47f
10:08am 20 34 mph 1034.9mb 57f 47f
9:08am 20 36 mph 1033.7mb 57f 48f
8:08am 20 34 mph 1032.8mb 57f 48f
7:08am 20 36 mph 1032mb 57f 48f
6:08am 18 31 mph 1031mb 57f 49f
5:08am 20 36 mph 1030.1mb 57f 49f
4:08am 20 34 mph 1029.7mb 57f 49f
3:08am 20 40 mph 1029.7mb 57f 49f
2:08am 20 38 mph 1029.6mb 57f 50f
1:08am 20 43 mph 1029.7mb 57f 50f
12:08am 18 38 mph 1029.4mb 57f 50f
Wed 03/22 11:08pm 18 34 mph 1028.9mb 57f 51f
10:08pm 20 34 mph 1027.8mb 57f 52f
9:08pm 20 34 mph 1026.2mb 57f 53f
8:08pm 20 34 mph 1024.7mb 57f 54f
7:08pm 20 36 mph 1023.3mb 57f 55f
6:08pm 16 27 mph 1022.1mb 57f 57f
5:08pm 16 27 mph 1021.1mb 57f 57f
4:08pm 16 25 mph 1020.3mb 57f 58f
3:08pm 11 16 mph 1019.6mb 57f 58f
2:08pm 13 25 mph 1019.4mb 57f 58f
1:08pm 11 20 mph 1018.9mb 57f 58f
12:08pm 11 18 mph 1018.4mb 56f 57f
11:08am 16 25 mph 1017.5mb 56f 56f
10:08am 13 22 mph 1016.4mb 56f 57f
9:08am 9 16 mph 1015mb 56f 58f
8:08am 2 7 mph 1013.5mb 56f 58f
7:08am 4 9 mph 1011.8mb 56f 58f
6:08am 2 4 mph 1010.9mb 56f 58f
5:08am 4 9 mph 1010.4mb 56f 58f
4:08am 4 9 mph 1011.3mb 56f 60f
3:08am 13 22 mph 1011.5mb 56f 62f